sensor_id;sensor_type;location;lat;lon;timestamp;temperature;humidity
14031;DHT22;7090;49.436;8.490;2023-04-15T00:01:22;5.50;99.90
14031;DHT22;7090;49.436;8.490;2023-04-15T00:03:50;5.60;99.90
14031;DHT22;7090;49.436;8.490;2023-04-15T00:06:17;5.40;99.90
14031;DHT22;7090;49.436;8.490;2023-04-15T00:08:47;5.30;99.90
14031;DHT22;7090;49.436;8.490;2023-04-15T00:11:13;5.20;99.90
14031;DHT22;7090;49.436;8.490;2023-04-15T00:13:39;5.20;99.90
14031;DHT22;7090;49.436;8.490;2023-04-15T00:16:06;5.20;99.90
14031;DHT22;7090;49.436;8.490;2023-04-15T00:18:33;5.30;99.90
14031;DHT22;7090;49.436;8.490;2023-04-15T00:20:59;5.40;99.90
14031;DHT22;7090;49.436;8.490;2023-04-15T00:23:24;5.50;99.90
14031;DHT22;7090;49.436;8.490;2023-04-15T00:25:50;5.40;99.90
14031;DHT22;7090;49.436;8.490;2023-04-15T00:28:16;5.30;99.90
14031;DHT22;7090;49.436;8.490;2023-04-15T00:30:42;5.20;99.90
14031;DHT22;7090;49.436;8.490;2023-04-15T00:33:08;5.20;99.90
14031;DHT22;7090;49.436;8.490;2023-04-15T00:35:34;5.00;99.90
14031;DHT22;7090;49.436;8.490;2023-04-15T00:38:02;4.80;99.90
14031;DHT22;7090;49.436;8.490;2023-04-15T00:40:27;4.60;99.90
14031;DHT22;7090;49.436;8.490;2023-04-15T00:42:53;4.60;99.90
14031;DHT22;7090;49.436;8.490;2023-04-15T00:45:18;4.60;99.90
14031;DHT22;7090;49.436;8.490;2023-04-15T00:47:44;4.60;99.90
14031;DHT22;7090;49.436;8.490;2023-04-15T00:50:11;4.70;99.90
14031;DHT22;7090;49.436;8.490;2023-04-15T00:52:37;4.80;99.90
14031;DHT22;7090;49.436;8.490;2023-04-15T00:55:04;4.90;99.90
14031;DHT22;7090;49.436;8.490;2023-04-15T00:57:30;4.80;99.90
14031;DHT22;7090;49.436;8.490;2023-04-15T00:59:56;4.80;99.90
14031;DHT22;7090;49.436;8.490;2023-04-15T01:02:22;4.80;99.90
14031;DHT22;7090;49.436;8.490;2023-04-15T01:04:48;4.80;99.90
14031;DHT22;7090;49.436;8.490;2023-04-15T01:07:14;4.80;99.90
14031;DHT22;7090;49.436;8.490;2023-04-15T01:09:40;4.80;99.90
14031;DHT22;7090;49.436;8.490;2023-04-15T01:12:06;4.70;99.90
14031;DHT22;7090;49.436;8.490;2023-04-15T01:14:34;4.70;99.90
14031;DHT22;7090;49.436;8.490;2023-04-15T01:17:00;4.60;99.90
14031;DHT22;7090;49.436;8.490;2023-04-15T01:19:26;4.40;99.90
14031;DHT22;7090;49.436;8.490;2023-04-15T01:21:53;4.40;99.90
14031;DHT22;7090;49.436;8.490;2023-04-15T01:24:18;4.30;99.90
14031;DHT22;7090;49.436;8.490;2023-04-15T01:26:45;4.40;99.90
14031;DHT22;7090;49.436;8.490;2023-04-15T01:29:11;4.60;99.90
14031;DHT22;7090;49.436;8.490;2023-04-15T01:31:37;4.60;99.90
14031;DHT22;7090;49.436;8.490;2023-04-15T01:34:03;4.70;99.90
14031;DHT22;7090;49.436;8.490;2023-04-15T01:36:29;4.70;99.90
14031;DHT22;7090;49.436;8.490;2023-04-15T01:38:55;4.80;99.90
14031;DHT22;7090;49.436;8.490;2023-04-15T01:41:25;4.90;99.90
14031;DHT22;7090;49.436;8.490;2023-04-15T01:43:51;4.90;99.90
14031;DHT22;7090;49.436;8.490;2023-04-15T01:46:17;4.80;99.90
14031;DHT22;7090;49.436;8.490;2023-04-15T01:48:43;4.70;99.90
14031;DHT22;7090;49.436;8.490;2023-04-15T01:51:08;4.70;99.90
14031;DHT22;7090;49.436;8.490;2023-04-15T01:53:34;4.60;99.90
14031;DHT22;7090;49.436;8.490;2023-04-15T01:56:00;4.50;99.90
14031;DHT22;7090;49.436;8.490;2023-04-15T01:58:25;4.60;99.90
14031;DHT22;7090;49.436;8.490;2023-04-15T02:00:51;4.70;99.90
14031;DHT22;7090;49.436;8.490;2023-04-15T02:03:17;4.60;99.90
14031;DHT22;7090;49.436;8.490;2023-04-15T02:05:43;4.50;99.90
14031;DHT22;7090;49.436;8.490;2023-04-15T02:08:08;4.40;99.90
14031;DHT22;7090;49.436;8.490;2023-04-15T02:10:34;4.20;99.90
14031;DHT22;7090;49.436;8.490;2023-04-15T02:13:00;4.10;99.90
14031;DHT22;7090;49.436;8.490;2023-04-15T02:15:26;4.20;99.90
14031;DHT22;7090;49.436;8.490;2023-04-15T02:17:51;4.20;99.90
14031;DHT22;7090;49.436;8.490;2023-04-15T02:20:20;4.10;99.90
14031;DHT22;7090;49.436;8.490;2023-04-15T02:22:46;4.10;99.90
14031;DHT22;7090;49.436;8.490;2023-04-15T02:25:12;4.20;99.90
14031;DHT22;7090;49.436;8.490;2023-04-15T02:27:38;4.20;99.90
14031;DHT22;7090;49.436;8.490;2023-04-15T02:30:04;4.00;99.90
14031;DHT22;7090;49.436;8.490;2023-04-15T02:32:31;4.00;99.90
14031;DHT22;7090;49.436;8.490;2023-04-15T02:35:01;4.10;99.90
14031;DHT22;7090;49.436;8.490;2023-04-15T02:37:27;4.20;99.90
14031;DHT22;7090;49.436;8.490;2023-04-15T02:39:54;4.20;99.90
14031;DHT22;7090;49.436;8.490;2023-04-15T02:42:20;4.20;99.90
14031;DHT22;7090;49.436;8.490;2023-04-15T02:44:46;4.20;99.90
14031;DHT22;7090;49.436;8.490;2023-04-15T02:47:11;4.10;99.90
14031;DHT22;7090;49.436;8.490;2023-04-15T02:49:37;4.10;99.90
14031;DHT22;7090;49.436;8.490;2023-04-15T02:52:03;4.20;99.90
14031;DHT22;7090;49.436;8.490;2023-04-15T02:54:28;4.10;99.90
14031;DHT22;7090;49.436;8.490;2023-04-15T02:56:54;4.00;99.90
14031;DHT22;7090;49.436;8.490;2023-04-15T02:59:20;3.90;99.90
14031;DHT22;7090;49.436;8.490;2023-04-15T03:01:46;3.80;99.90
14031;DHT22;7090;49.436;8.490;2023-04-15T03:04:12;3.80;99.90
14031;DHT22;7090;49.436;8.490;2023-04-15T03:06:38;3.70;99.90
14031;DHT22;7090;49.436;8.490;2023-04-15T03:09:04;3.60;99.90
14031;DHT22;7090;49.436;8.490;2023-04-15T03:11:29;3.70;99.90
14031;DHT22;7090;49.436;8.490;2023-04-15T03:13:56;3.80;99.90
14031;DHT22;7090;49.436;8.490;2023-04-15T03:16:21;3.80;99.90
14031;DHT22;7090;49.436;8.490;2023-04-15T03:18:47;3.70;99.90
14031;DHT22;7090;49.436;8.490;2023-04-15T03:21:12;3.50;99.90
14031;DHT22;7090;49.436;8.490;2023-04-15T03:23:38;3.50;99.90
14031;DHT22;7090;49.436;8.490;2023-04-15T03:26:04;3.50;99.90
14031;DHT22;7090;49.436;8.490;2023-04-15T03:28:30;3.50;99.90
14031;DHT22;7090;49.436;8.490;2023-04-15T03:30:57;3.30;99.90
14031;DHT22;7090;49.436;8.490;2023-04-15T03:33:22;3.40;99.90
14031;DHT22;7090;49.436;8.490;2023-04-15T03:35:49;3.50;99.90
14031;DHT22;7090;49.436;8.490;2023-04-15T03:38:15;3.50;99.90
14031;DHT22;7090;49.436;8.490;2023-04-15T03:40:41;3.60;99.90
14031;DHT22;7090;49.436;8.490;2023-04-15T03:43:07;3.50;99.90
14031;DHT22;7090;49.436;8.490;2023-04-15T03:45:32;3.60;99.90
14031;DHT22;7090;49.436;8.490;2023-04-15T03:47:58;3.60;99.90
14031;DHT22;7090;49.436;8.490;2023-04-15T03:50:24;3.50;99.90
14031;DHT22;7090;49.436;8.490;2023-04-15T03:52:49;3.50;99.90
14031;DHT22;7090;49.436;8.490;2023-04-15T03:55:15;3.40;99.90
14031;DHT22;7090;49.436;8.490;2023-04-15T03:57:41;3.40;99.90
14031;DHT22;7090;49.436;8.490;2023-04-15T04:00:08;3.60;99.90
14031;DHT22;7090;49.436;8.490;2023-04-15T04:02:34;3.50;99.90
14031;DHT22;7090;49.436;8.490;2023-04-15T04:05:00;3.60;99.90
14031;DHT22;7090;49.436;8.490;2023-04-15T04:07:25;3.60;99.90
14031;DHT22;7090;49.436;8.490;2023-04-15T04:09:51;3.60;99.90
14031;DHT22;7090;49.436;8.490;2023-04-15T04:12:16;3.60;99.90
14031;DHT22;7090;49.436;8.490;2023-04-15T04:14:42;3.70;99.90
14031;DHT22;7090;49.436;8.490;2023-04-15T04:17:07;3.70;99.90
14031;DHT22;7090;49.436;8.490;2023-04-15T04:19:33;3.70;99.90
14031;DHT22;7090;49.436;8.490;2023-04-15T04:21:59;3.50;99.90
14031;DHT22;7090;49.436;8.490;2023-04-15T04:24:24;3.30;99.90
14031;DHT22;7090;49.436;8.490;2023-04-15T04:26:50;3.30;99.90
14031;DHT22;7090;49.436;8.490;2023-04-15T04:29:16;3.50;99.90
14031;DHT22;7090;49.436;8.490;2023-04-15T04:31:41;3.30;99.90
14031;DHT22;7090;49.436;8.490;2023-04-15T04:34:07;3.50;99.90
14031;DHT22;7090;49.436;8.490;2023-04-15T04:36:33;3.60;99.90
14031;DHT22;7090;49.436;8.490;2023-04-15T04:38:58;3.70;99.90
14031;DHT22;7090;49.436;8.490;2023-04-15T04:41:24;3.70;99.90
14031;DHT22;7090;49.436;8.490;2023-04-15T04:43:50;3.60;99.90
14031;DHT22;7090;49.436;8.490;2023-04-15T04:46:15;3.50;99.90
14031;DHT22;7090;49.436;8.490;2023-04-15T04:48:41;3.50;99.90
14031;DHT22;7090;49.436;8.490;2023-04-15T04:51:06;3.50;99.90
14031;DHT22;7090;49.436;8.490;2023-04-15T04:53:32;3.50;99.90
14031;DHT22;7090;49.436;8.490;2023-04-15T04:55:58;3.50;99.90
14031;DHT22;7090;49.436;8.490;2023-04-15T04:58:24;3.60;99.90
14031;DHT22;7090;49.436;8.490;2023-04-15T05:00:49;3.50;99.90
14031;DHT22;7090;49.436;8.490;2023-04-15T05:03:15;3.50;99.90
14031;DHT22;7090;49.436;8.490;2023-04-15T05:05:41;3.60;99.90
14031;DHT22;7090;49.436;8.490;2023-04-15T05:08:06;3.50;99.90
14031;DHT22;7090;49.436;8.490;2023-04-15T05:10:32;3.50;99.90
14031;DHT22;7090;49.436;8.490;2023-04-15T05:12:57;3.50;99.90
14031;DHT22;7090;49.436;8.490;2023-04-15T05:15:23;3.50;99.90
14031;DHT22;7090;49.436;8.490;2023-04-15T05:17:49;3.50;99.90
14031;DHT22;7090;49.436;8.490;2023-04-15T05:20:14;3.70;99.90
14031;DHT22;7090;49.436;8.490;2023-04-15T05:22:40;3.80;99.90
14031;DHT22;7090;49.436;8.490;2023-04-15T05:25:06;4.00;99.90
14031;DHT22;7090;49.436;8.490;2023-04-15T05:27:32;4.50;99.90
14031;DHT22;7090;49.436;8.490;2023-04-15T05:29:57;5.10;99.90
14031;DHT22;7090;49.436;8.490;2023-04-15T05:32:23;5.70;99.90
14031;DHT22;7090;49.436;8.490;2023-04-15T05:34:48;5.80;99.90
14031;DHT22;7090;49.436;8.490;2023-04-15T05:37:14;6.30;99.90
14031;DHT22;7090;49.436;8.490;2023-04-15T05:39:39;6.70;99.90
14031;DHT22;7090;49.436;8.490;2023-04-15T05:42:05;7.20;99.90
14031;DHT22;7090;49.436;8.490;2023-04-15T05:44:31;7.50;99.90
14031;DHT22;7090;49.436;8.490;2023-04-15T05:46:56;7.70;99.90
14031;DHT22;7090;49.436;8.490;2023-04-15T05:49:22;8.40;99.90
14031;DHT22;7090;49.436;8.490;2023-04-15T05:51:48;8.90;99.90
14031;DHT22;7090;49.436;8.490;2023-04-15T05:54:14;9.30;99.90
14031;DHT22;7090;49.436;8.490;2023-04-15T05:56:39;9.60;99.90
14031;DHT22;7090;49.436;8.490;2023-04-15T05:59:05;9.60;99.90
14031;DHT22;7090;49.436;8.490;2023-04-15T06:01:32;10.50;99.90
14031;DHT22;7090;49.436;8.490;2023-04-15T06:03:58;10.80;1.00
14031;DHT22;7090;49.436;8.490;2023-04-15T06:06:24;11.00;1.00
14031;DHT22;7090;49.436;8.490;2023-04-15T06:08:51;11.10;1.00
14031;DHT22;7090;49.436;8.490;2023-04-15T06:11:18;11.00;1.00
14031;DHT22;7090;49.436;8.490;2023-04-15T06:13:45;10.80;1.00
14031;DHT22;7090;49.436;8.490;2023-04-15T06:16:10;11.40;1.00
14031;DHT22;7090;49.436;8.490;2023-04-15T06:18:36;11.80;1.00
14031;DHT22;7090;49.436;8.490;2023-04-15T06:21:02;12.00;99.90
14031;DHT22;7090;49.436;8.490;2023-04-15T06:23:27;11.90;99.90
14031;DHT22;7090;49.436;8.490;2023-04-15T06:25:53;12.00;99.90
14031;DHT22;7090;49.436;8.490;2023-04-15T06:28:18;12.30;99.90
14031;DHT22;7090;49.436;8.490;2023-04-15T06:30:44;12.50;99.90
14031;DHT22;7090;49.436;8.490;2023-04-15T06:33:10;12.80;1.00
14031;DHT22;7090;49.436;8.490;2023-04-15T06:35:35;13.00;1.00
14031;DHT22;7090;49.436;8.490;2023-04-15T06:38:01;13.20;45.30
14031;DHT22;7090;49.436;8.490;2023-04-15T06:40:26;13.20;1.00
14031;DHT22;7090;49.436;8.490;2023-04-15T06:42:52;13.40;1.00
14031;DHT22;7090;49.436;8.490;2023-04-15T06:45:18;13.30;99.90
14031;DHT22;7090;49.436;8.490;2023-04-15T06:47:43;13.10;99.90
14031;DHT22;7090;49.436;8.490;2023-04-15T06:50:09;13.10;1.00
14031;DHT22;7090;49.436;8.490;2023-04-15T06:52:35;12.80;1.00
14031;DHT22;7090;49.436;8.490;2023-04-15T06:55:01;12.90;1.00
14031;DHT22;7090;49.436;8.490;2023-04-15T06:57:27;12.90;1.00
14031;DHT22;7090;49.436;8.490;2023-04-15T06:59:53;12.90;1.00
14031;DHT22;7090;49.436;8.490;2023-04-15T07:05:40;12.90;1.00
14031;DHT22;7090;49.436;8.490;2023-04-15T07:08:06;13.30;99.90
14031;DHT22;7090;49.436;8.490;2023-04-15T07:10:35;13.30;99.90
14031;DHT22;7090;49.436;8.490;2023-04-15T07:13:00;13.70;1.00
14031;DHT22;7090;49.436;8.490;2023-04-15T07:15:26;14.00;1.00
14031;DHT22;7090;49.436;8.490;2023-04-15T07:17:51;13.40;1.00
14031;DHT22;7090;49.436;8.490;2023-04-15T07:20:17;13.70;99.90
14031;DHT22;7090;49.436;8.490;2023-04-15T07:22:42;14.00;1.00
14031;DHT22;7090;49.436;8.490;2023-04-15T07:25:08;14.40;1.00
14031;DHT22;7090;49.436;8.490;2023-04-15T07:27:34;14.50;1.00
14031;DHT22;7090;49.436;8.490;2023-04-15T07:29:59;14.90;1.00
14031;DHT22;7090;49.436;8.490;2023-04-15T07:32:25;15.10;99.90
14031;DHT22;7090;49.436;8.490;2023-04-15T07:34:50;14.50;99.90
14031;DHT22;7090;49.436;8.490;2023-04-15T07:37:16;14.40;99.90
14031;DHT22;7090;49.436;8.490;2023-04-15T07:39:42;14.80;99.90
14031;DHT22;7090;49.436;8.490;2023-04-15T07:42:08;15.20;1.00
14031;DHT22;7090;49.436;8.490;2023-04-15T07:44:34;14.70;99.90
14031;DHT22;7090;49.436;8.490;2023-04-15T07:47:01;14.10;99.90
14031;DHT22;7090;49.436;8.490;2023-04-15T07:49:27;14.40;99.90
14031;DHT22;7090;49.436;8.490;2023-04-15T07:51:52;14.60;99.90
14031;DHT22;7090;49.436;8.490;2023-04-15T07:54:18;14.70;1.00
14031;DHT22;7090;49.436;8.490;2023-04-15T07:56:43;14.80;1.00
14031;DHT22;7090;49.436;8.490;2023-04-15T07:59:09;15.10;1.00
14031;DHT22;7090;49.436;8.490;2023-04-15T08:01:36;15.10;1.00
14031;DHT22;7090;49.436;8.490;2023-04-15T08:04:02;15.20;1.00
14031;DHT22;7090;49.436;8.490;2023-04-15T08:06:28;15.70;1.00
14031;DHT22;7090;49.436;8.490;2023-04-15T08:08:54;15.60;1.00
14031;DHT22;7090;49.436;8.490;2023-04-15T08:11:20;15.80;1.00
14031;DHT22;7090;49.436;8.490;2023-04-15T08:13:46;15.80;1.00
14031;DHT22;7090;49.436;8.490;2023-04-15T08:16:25;15.70;1.00
14031;DHT22;7090;49.436;8.490;2023-04-15T08:18:55;15.30;1.00
14031;DHT22;7090;49.436;8.490;2023-04-15T08:21:22;15.30;99.90
14031;DHT22;7090;49.436;8.490;2023-04-15T08:23:48;15.40;99.90
14031;DHT22;7090;49.436;8.490;2023-04-15T08:26:15;15.70;99.90
14031;DHT22;7090;49.436;8.490;2023-04-15T08:28:41;16.10;1.00
14031;DHT22;7090;49.436;8.490;2023-04-15T08:31:07;16.50;1.00
14031;DHT22;7090;49.436;8.490;2023-04-15T08:33:33;17.00;1.00
14031;DHT22;7090;49.436;8.490;2023-04-15T08:35:59;17.20;1.00
14031;DHT22;7090;49.436;8.490;2023-04-15T08:38:25;17.50;1.00
14031;DHT22;7090;49.436;8.490;2023-04-15T08:40:50;17.70;1.00
14031;DHT22;7090;49.436;8.490;2023-04-15T08:43:21;18.10;1.00
14031;DHT22;7090;49.436;8.490;2023-04-15T08:45:52;18.20;1.00
14031;DHT22;7090;49.436;8.490;2023-04-15T08:48:18;18.60;1.00
14031;DHT22;7090;49.436;8.490;2023-04-15T08:50:45;18.80;1.00
14031;DHT22;7090;49.436;8.490;2023-04-15T08:53:11;18.30;1.00
14031;DHT22;7090;49.436;8.490;2023-04-15T08:55:42;18.20;1.00
14031;DHT22;7090;49.436;8.490;2023-04-15T08:58:09;18.30;1.00
14031;DHT22;7090;49.436;8.490;2023-04-15T09:00:36;18.50;1.00
14031;DHT22;7090;49.436;8.490;2023-04-15T09:03:04;18.60;1.00
14031;DHT22;7090;49.436;8.490;2023-04-15T09:05:40;18.40;1.00
14031;DHT22;7090;49.436;8.490;2023-04-15T09:08:05;18.60;1.00
14031;DHT22;7090;49.436;8.490;2023-04-15T09:10:32;18.80;1.00
14031;DHT22;7090;49.436;8.490;2023-04-15T09:12:58;19.00;1.00
14031;DHT22;7090;49.436;8.490;2023-04-15T09:15:27;19.00;1.00
14031;DHT22;7090;49.436;8.490;2023-04-15T09:17:54;19.00;1.00
14031;DHT22;7090;49.436;8.490;2023-04-15T09:20:20;19.30;1.00
14031;DHT22;7090;49.436;8.490;2023-04-15T09:22:47;19.70;1.00
14031;DHT22;7090;49.436;8.490;2023-04-15T09:27:56;19.50;1.00
14031;DHT22;7090;49.436;8.490;2023-04-15T09:30:22;20.10;8.90
14031;DHT22;7090;49.436;8.490;2023-04-15T09:32:52;19.90;99.90
14031;DHT22;7090;49.436;8.490;2023-04-15T09:35:20;20.20;1.00
14031;DHT22;7090;49.436;8.490;2023-04-15T09:37:46;20.20;1.00
14031;DHT22;7090;49.436;8.490;2023-04-15T09:40:12;20.30;1.00
14031;DHT22;7090;49.436;8.490;2023-04-15T09:42:54;20.40;1.00
14031;DHT22;7090;49.436;8.490;2023-04-15T09:45:21;20.50;1.00
14031;DHT22;7090;49.436;8.490;2023-04-15T09:47:46;20.10;1.00
14031;DHT22;7090;49.436;8.490;2023-04-15T09:50:12;20.00;1.00
14031;DHT22;7090;49.436;8.490;2023-04-15T09:52:42;20.30;1.00
14031;DHT22;7090;49.436;8.490;2023-04-15T09:55:09;20.10;1.00
14031;DHT22;7090;49.436;8.490;2023-04-15T09:57:35;20.10;1.00
14031;DHT22;7090;49.436;8.490;2023-04-15T10:00:05;19.90;1.00
14031;DHT22;7090;49.436;8.490;2023-04-15T10:02:32;20.20;1.00
14031;DHT22;7090;49.436;8.490;2023-04-15T10:04:58;20.70;1.00
14031;DHT22;7090;49.436;8.490;2023-04-15T10:07:25;20.70;1.00
14031;DHT22;7090;49.436;8.490;2023-04-15T10:09:51;20.40;99.20
14031;DHT22;7090;49.436;8.490;2023-04-15T10:12:18;20.00;1.00
14031;DHT22;7090;49.436;8.490;2023-04-15T10:14:44;19.90;1.00
14031;DHT22;7090;49.436;8.490;2023-04-15T10:17:16;20.00;1.00
14031;DHT22;7090;49.436;8.490;2023-04-15T10:19:43;20.10;1.00
14031;DHT22;7090;49.436;8.490;2023-04-15T10:22:09;20.10;1.00
14031;DHT22;7090;49.436;8.490;2023-04-15T10:24:35;20.40;1.00
14031;DHT22;7090;49.436;8.490;2023-04-15T10:27:03;20.40;1.00
14031;DHT22;7090;49.436;8.490;2023-04-15T10:29:30;20.40;1.00
14031;DHT22;7090;49.436;8.490;2023-04-15T10:31:57;19.40;1.00
14031;DHT22;7090;49.436;8.490;2023-04-15T10:34:24;19.10;1.00
14031;DHT22;7090;49.436;8.490;2023-04-15T10:36:50;19.40;1.00
14031;DHT22;7090;49.436;8.490;2023-04-15T10:42:11;19.10;1.00
14031;DHT22;7090;49.436;8.490;2023-04-15T10:44:48;19.10;1.00
14031;DHT22;7090;49.436;8.490;2023-04-15T10:47:16;19.70;1.00
14031;DHT22;7090;49.436;8.490;2023-04-15T10:49:47;19.80;1.00
14031;DHT22;7090;49.436;8.490;2023-04-15T10:52:14;20.10;1.00
14031;DHT22;7090;49.436;8.490;2023-04-15T10:54:41;19.40;1.00
14031;DHT22;7090;49.436;8.490;2023-04-15T10:57:12;19.80;1.00
14031;DHT22;7090;49.436;8.490;2023-04-15T11:02:51;19.90;1.00
14031;DHT22;7090;49.436;8.490;2023-04-15T11:05:18;20.10;1.00
14031;DHT22;7090;49.436;8.490;2023-04-15T11:12:52;19.50;1.00
14031;DHT22;7090;49.436;8.490;2023-04-15T11:18:17;19.10;1.00
14031;DHT22;7090;49.436;8.490;2023-04-15T11:23:09;19.20;1.00
14031;DHT22;7090;49.436;8.490;2023-04-15T11:25:36;19.40;1.00
14031;DHT22;7090;49.436;8.490;2023-04-15T11:28:03;19.50;1.00
14031;DHT22;7090;49.436;8.490;2023-04-15T11:30:32;19.30;1.00
14031;DHT22;7090;49.436;8.490;2023-04-15T11:33:00;19.30;1.00
14031;DHT22;7090;49.436;8.490;2023-04-15T11:35:26;19.30;1.00
14031;DHT22;7090;49.436;8.490;2023-04-15T11:37:52;18.10;1.00
14031;DHT22;7090;49.436;8.490;2023-04-15T11:45:35;17.90;1.00
14031;DHT22;7090;49.436;8.490;2023-04-15T11:50:32;17.70;1.00
14031;DHT22;7090;49.436;8.490;2023-04-15T11:53:01;17.90;1.00
14031;DHT22;7090;49.436;8.490;2023-04-15T11:55:27;18.40;1.00
14031;DHT22;7090;49.436;8.490;2023-04-15T12:00:34;16.80;1.00
14031;DHT22;7090;49.436;8.490;2023-04-15T12:13:53;16.50;1.00
14031;DHT22;7090;49.436;8.490;2023-04-15T12:16:20;17.00;1.00
14031;DHT22;7090;49.436;8.490;2023-04-15T12:18:50;17.10;1.00
14031;DHT22;7090;49.436;8.490;2023-04-15T12:21:18;17.30;1.00
14031;DHT22;7090;49.436;8.490;2023-04-15T12:23:57;17.70;1.00
14031;DHT22;7090;49.436;8.490;2023-04-15T12:29:05;17.70;1.00
14031;DHT22;7090;49.436;8.490;2023-04-15T12:31:31;17.40;1.00
14031;DHT22;7090;49.436;8.490;2023-04-15T12:33:59;17.10;1.00
14031;DHT22;7090;49.436;8.490;2023-04-15T12:36:26;16.90;1.00
14031;DHT22;7090;49.436;8.490;2023-04-15T12:38:51;16.90;1.00
14031;DHT22;7090;49.436;8.490;2023-04-15T12:41:17;16.70;1.00
14031;DHT22;7090;49.436;8.490;2023-04-15T12:43:44;16.40;1.00
14031;DHT22;7090;49.436;8.490;2023-04-15T12:46:11;16.50;1.00
14031;DHT22;7090;49.436;8.490;2023-04-15T12:48:36;16.40;1.00
14031;DHT22;7090;49.436;8.490;2023-04-15T12:51:02;16.30;1.00
14031;DHT22;7090;49.436;8.490;2023-04-15T12:53:27;16.30;1.00
14031;DHT22;7090;49.436;8.490;2023-04-15T12:55:53;16.20;1.00
14031;DHT22;7090;49.436;8.490;2023-04-15T12:58:19;16.10;1.00
14031;DHT22;7090;49.436;8.490;2023-04-15T13:00:45;16.10;1.00
14031;DHT22;7090;49.436;8.490;2023-04-15T13:03:11;16.20;1.00
14031;DHT22;7090;49.436;8.490;2023-04-15T13:05:37;16.10;99.90
14031;DHT22;7090;49.436;8.490;2023-04-15T13:08:04;16.10;1.00
14031;DHT22;7090;49.436;8.490;2023-04-15T13:10:30;16.00;1.00
14031;DHT22;7090;49.436;8.490;2023-04-15T13:12:56;15.80;1.00
14031;DHT22;7090;49.436;8.490;2023-04-15T13:15:22;15.90;1.00
14031;DHT22;7090;49.436;8.490;2023-04-15T13:17:48;15.90;1.00
14031;DHT22;7090;49.436;8.490;2023-04-15T13:20:14;16.00;1.00
14031;DHT22;7090;49.436;8.490;2023-04-15T13:22:40;15.80;1.00
14031;DHT22;7090;49.436;8.490;2023-04-15T13:25:06;15.70;1.00
14031;DHT22;7090;49.436;8.490;2023-04-15T13:27:32;15.70;1.00
14031;DHT22;7090;49.436;8.490;2023-04-15T13:29:58;15.90;1.00
14031;DHT22;7090;49.436;8.490;2023-04-15T13:32:24;16.10;1.00
14031;DHT22;7090;49.436;8.490;2023-04-15T13:34:50;16.10;1.00
14031;DHT22;7090;49.436;8.490;2023-04-15T13:37:15;16.00;1.00
14031;DHT22;7090;49.436;8.490;2023-04-15T13:39:41;16.00;1.00
14031;DHT22;7090;49.436;8.490;2023-04-15T13:42:07;15.80;1.00
14031;DHT22;7090;49.436;8.490;2023-04-15T13:44:32;15.80;99.90
14031;DHT22;7090;49.436;8.490;2023-04-15T13:46:58;15.80;99.90
14031;DHT22;7090;49.436;8.490;2023-04-15T13:49:23;15.90;1.00
14031;DHT22;7090;49.436;8.490;2023-04-15T13:51:50;15.90;1.00
14031;DHT22;7090;49.436;8.490;2023-04-15T13:54:15;16.10;1.00
14031;DHT22;7090;49.436;8.490;2023-04-15T13:56:41;16.00;1.00
14031;DHT22;7090;49.436;8.490;2023-04-15T13:59:07;15.90;1.00
14031;DHT22;7090;49.436;8.490;2023-04-15T14:01:33;15.70;1.00
14031;DHT22;7090;49.436;8.490;2023-04-15T14:03:59;15.80;99.90
14031;DHT22;7090;49.436;8.490;2023-04-15T14:06:24;15.90;93.20
14031;DHT22;7090;49.436;8.490;2023-04-15T14:08:51;16.30;1.00
14031;DHT22;7090;49.436;8.490;2023-04-15T14:11:17;16.30;1.00
14031;DHT22;7090;49.436;8.490;2023-04-15T14:13:43;16.30;1.00
14031;DHT22;7090;49.436;8.490;2023-04-15T14:16:09;16.50;1.00
14031;DHT22;7090;49.436;8.490;2023-04-15T14:18:35;16.50;83.90
14031;DHT22;7090;49.436;8.490;2023-04-15T14:21:02;16.30;99.90
14031;DHT22;7090;49.436;8.490;2023-04-15T14:23:28;16.10;99.90
14031;DHT22;7090;49.436;8.490;2023-04-15T14:25:53;16.00;99.90
14031;DHT22;7090;49.436;8.490;2023-04-15T14:28:19;15.50;1.00
14031;DHT22;7090;49.436;8.490;2023-04-15T14:30:45;15.10;1.00
14031;DHT22;7090;49.436;8.490;2023-04-15T14:33:10;14.90;1.00
14031;DHT22;7090;49.436;8.490;2023-04-15T14:35:36;14.70;1.00
14031;DHT22;7090;49.436;8.490;2023-04-15T14:38:02;14.60;1.00
14031;DHT22;7090;49.436;8.490;2023-04-15T14:40:28;14.30;1.00
14031;DHT22;7090;49.436;8.490;2023-04-15T14:42:54;14.00;1.00
14031;DHT22;7090;49.436;8.490;2023-04-15T14:45:20;13.80;2.70
14031;DHT22;7090;49.436;8.490;2023-04-15T14:47:46;13.80;2.20
14031;DHT22;7090;49.436;8.490;2023-04-15T14:50:11;13.50;71.20
14031;DHT22;7090;49.436;8.490;2023-04-15T14:52:37;13.50;1.00
14031;DHT22;7090;49.436;8.490;2023-04-15T14:55:05;13.60;99.90
14031;DHT22;7090;49.436;8.490;2023-04-15T14:57:31;13.40;1.00
14031;DHT22;7090;49.436;8.490;2023-04-15T14:59:57;13.30;99.90
14031;DHT22;7090;49.436;8.490;2023-04-15T15:02:23;13.40;1.00
14031;DHT22;7090;49.436;8.490;2023-04-15T15:04:49;13.10;1.00
14031;DHT22;7090;49.436;8.490;2023-04-15T15:07:14;13.20;1.00
14031;DHT22;7090;49.436;8.490;2023-04-15T15:09:40;13.10;1.00
14031;DHT22;7090;49.436;8.490;2023-04-15T15:12:06;12.60;1.00
14031;DHT22;7090;49.436;8.490;2023-04-15T15:14:31;12.70;1.00
14031;DHT22;7090;49.436;8.490;2023-04-15T15:16:57;12.60;32.50
14031;DHT22;7090;49.436;8.490;2023-04-15T15:19:23;12.70;99.90
14031;DHT22;7090;49.436;8.490;2023-04-15T15:21:49;12.60;1.00
14031;DHT22;7090;49.436;8.490;2023-04-15T15:24:15;12.60;1.00
14031;DHT22;7090;49.436;8.490;2023-04-15T15:26:40;12.40;1.00
14031;DHT22;7090;49.436;8.490;2023-04-15T15:29:06;12.60;99.90
14031;DHT22;7090;49.436;8.490;2023-04-15T15:31:34;12.40;99.90
14031;DHT22;7090;49.436;8.490;2023-04-15T15:34:00;12.20;1.00
14031;DHT22;7090;49.436;8.490;2023-04-15T15:36:25;12.30;1.00
14031;DHT22;7090;49.436;8.490;2023-04-15T15:38:51;12.10;99.90
14031;DHT22;7090;49.436;8.490;2023-04-15T15:41:17;11.90;99.90
14031;DHT22;7090;49.436;8.490;2023-04-15T15:43:43;11.90;1.00
14031;DHT22;7090;49.436;8.490;2023-04-15T15:46:08;12.00;43.10
14031;DHT22;7090;49.436;8.490;2023-04-15T15:48:34;12.00;6.80
14031;DHT22;7090;49.436;8.490;2023-04-15T15:51:00;12.00;99.90
14031;DHT22;7090;49.436;8.490;2023-04-15T15:53:25;11.90;99.90
14031;DHT22;7090;49.436;8.490;2023-04-15T15:55:51;11.80;99.90
14031;DHT22;7090;49.436;8.490;2023-04-15T15:58:17;11.40;99.90
14031;DHT22;7090;49.436;8.490;2023-04-15T16:00:42;11.30;99.90
14031;DHT22;7090;49.436;8.490;2023-04-15T16:03:08;11.20;99.90
14031;DHT22;7090;49.436;8.490;2023-04-15T16:05:34;11.10;99.90
14031;DHT22;7090;49.436;8.490;2023-04-15T16:08:00;11.00;99.90
14031;DHT22;7090;49.436;8.490;2023-04-15T16:10:26;10.90;99.90
14031;DHT22;7090;49.436;8.490;2023-04-15T16:12:52;10.80;99.90
14031;DHT22;7090;49.436;8.490;2023-04-15T16:15:18;10.80;99.90
14031;DHT22;7090;49.436;8.490;2023-04-15T16:21:07;10.60;99.90
14031;DHT22;7090;49.436;8.490;2023-04-15T16:30:13;10.70;99.90
14031;DHT22;7090;49.436;8.490;2023-04-15T16:32:39;10.60;99.90
14031;DHT22;7090;49.436;8.490;2023-04-15T16:35:05;10.50;99.90
14031;DHT22;7090;49.436;8.490;2023-04-15T16:37:31;10.60;99.90
14031;DHT22;7090;49.436;8.490;2023-04-15T16:39:57;10.60;99.90
14031;DHT22;7090;49.436;8.490;2023-04-15T16:42:23;10.60;99.90
14031;DHT22;7090;49.436;8.490;2023-04-15T16:44:49;10.50;99.90
14031;DHT22;7090;49.436;8.490;2023-04-15T16:47:15;10.50;99.90
14031;DHT22;7090;49.436;8.490;2023-04-15T16:49:40;10.50;99.90